createdAt,value
2023-03-19T00:00:27.615Z,2.28
2023-03-19T00:02:54.795Z,2.22
2023-03-19T00:05:21.640Z,1.60
2023-03-19T00:07:48.489Z,1.92
2023-03-19T00:10:15.309Z,2.67
2023-03-19T00:12:42.114Z,2.30
2023-03-19T00:15:14.106Z,1.40
2023-03-19T00:17:44.494Z,2.00
2023-03-19T00:20:14.900Z,1.60
2023-03-19T00:22:41.713Z,1.88
2023-03-19T00:25:10.071Z,2.00
2023-03-19T00:27:38.300Z,2.50
2023-03-19T00:30:07.807Z,2.53
2023-03-19T00:32:36.740Z,3.05
2023-03-19T00:35:06.491Z,2.67
2023-03-19T00:37:34.426Z,2.35
2023-03-19T00:40:01.782Z,1.80
2023-03-19T00:42:30.734Z,2.10
2023-03-19T00:44:57.514Z,2.17
2023-03-19T00:47:24.509Z,2.13
2023-03-19T00:49:51.353Z,1.83
2023-03-19T00:52:18.058Z,2.53
2023-03-19T00:54:44.957Z,4.22
2023-03-19T00:57:11.745Z,8.32
2023-03-19T00:59:38.485Z,3.65
2023-03-19T01:02:05.326Z,2.65
2023-03-19T01:04:32.094Z,1.90
2023-03-19T01:09:26.641Z,2.28
2023-03-19T01:11:53.720Z,1.85
2023-03-19T01:14:20.538Z,1.33
2023-03-19T01:16:47.296Z,1.20
2023-03-19T01:19:14.338Z,1.67
2023-03-19T01:21:42.970Z,1.38
2023-03-19T01:24:10.705Z,1.35
2023-03-19T01:26:37.507Z,1.20
2023-03-19T01:29:04.653Z,1.40
2023-03-19T01:31:31.426Z,1.27
2023-03-19T01:33:58.231Z,1.88
2023-03-19T01:36:24.978Z,1.60
2023-03-19T01:38:51.682Z,1.60
2023-03-19T01:41:18.427Z,1.40
2023-03-19T01:43:45.219Z,1.60
2023-03-19T01:46:18.620Z,1.33
2023-03-19T01:48:52.704Z,1.80
2023-03-19T01:51:26.214Z,1.52
2023-03-19T01:53:57.692Z,1.40
2023-03-19T01:56:29.338Z,1.50
2023-03-19T01:58:58.329Z,1.10
2023-03-19T02:01:27.789Z,1.63
2023-03-19T02:03:55.272Z,1.10
2023-03-19T02:06:23.674Z,1.73
2023-03-19T02:08:51.876Z,1.30
2023-03-19T02:11:19.341Z,1.02
2023-03-19T02:13:47.152Z,0.90
2023-03-19T02:16:15.495Z,0.63
2023-03-19T02:18:42.696Z,1.02
2023-03-19T02:21:14.746Z,0.80
2023-03-19T02:24:21.700Z,0.80
2023-03-19T02:26:48.798Z,0.90
2023-03-19T02:29:15.727Z,0.70
2023-03-19T02:31:42.456Z,0.80
2023-03-19T02:34:21.358Z,0.65
2023-03-19T02:37:02.466Z,0.90
2023-03-19T02:39:39.476Z,0.63
2023-03-19T02:42:06.652Z,0.57
2023-03-19T02:44:33.338Z,0.82
2023-03-19T02:47:00.408Z,1.00
2023-03-19T02:49:27.257Z,0.60
2023-03-19T02:51:54.062Z,0.40
2023-03-19T02:54:20.900Z,0.40
2023-03-19T02:56:49.049Z,0.50
2023-03-19T02:59:15.865Z,0.73
2023-03-19T03:01:42.572Z,0.70
2023-03-19T03:04:09.374Z,0.50
2023-03-19T03:06:36.281Z,1.15
2023-03-19T03:09:03.911Z,0.77
2023-03-19T03:11:31.048Z,0.60
2023-03-19T03:13:57.888Z,0.60
2023-03-19T03:16:25.599Z,0.98
2023-03-19T03:18:52.385Z,0.70
2023-03-19T03:21:21.315Z,1.13
2023-03-19T03:23:48.684Z,0.73
2023-03-19T03:26:15.607Z,0.57
2023-03-19T03:28:42.393Z,0.50
2023-03-19T03:31:09.593Z,0.68
2023-03-19T03:33:36.743Z,0.85
2023-03-19T03:36:03.948Z,0.73
2023-03-19T03:38:32.641Z,0.98
2023-03-19T03:40:59.439Z,0.80
2023-03-19T03:43:26.693Z,0.95
2023-03-19T03:45:53.629Z,1.25
2023-03-19T03:48:20.458Z,0.73
2023-03-19T03:50:47.247Z,0.63
2023-03-19T03:53:14.447Z,0.80
2023-03-19T03:55:41.986Z,1.23
2023-03-19T03:58:08.773Z,0.82
2023-03-19T04:00:35.848Z,1.23
2023-03-19T04:03:03.099Z,0.60
2023-03-19T04:05:29.901Z,0.90
2023-03-19T04:07:57.144Z,0.80
2023-03-19T04:10:24.242Z,0.82
2023-03-19T04:12:50.969Z,1.50
2023-03-19T04:15:17.786Z,0.60
2023-03-19T04:17:45.339Z,1.63
2023-03-19T04:20:12.590Z,0.95
2023-03-19T04:22:39.315Z,1.80
2023-03-19T04:25:08.290Z,1.10
2023-03-19T04:27:35.051Z,1.10
2023-03-19T04:30:02.006Z,2.60
2023-03-19T04:32:28.806Z,1.48
2023-03-19T04:34:55.544Z,2.53
2023-03-19T04:37:22.346Z,1.58
2023-03-19T04:39:49.096Z,1.45
2023-03-19T04:42:16.139Z,1.40
2023-03-19T04:44:42.875Z,1.02
2023-03-19T04:47:10.314Z,1.05
2023-03-19T04:49:37.100Z,1.17
2023-03-19T04:52:04.436Z,1.20
2023-03-19T04:54:31.147Z,1.10
2023-03-19T04:56:57.907Z,1.17
2023-03-19T04:59:24.735Z,1.27
2023-03-19T05:01:51.512Z,1.15
2023-03-19T05:04:18.694Z,1.10
2023-03-19T05:06:45.605Z,1.00
2023-03-19T05:09:13.027Z,1.05
2023-03-19T05:11:39.743Z,1.85
2023-03-19T05:14:07.042Z,1.80
2023-03-19T05:16:35.586Z,1.75
2023-03-19T05:19:02.253Z,1.33
2023-03-19T05:21:28.958Z,2.03
2023-03-19T05:23:57.189Z,1.58
2023-03-19T05:26:24.179Z,1.92
2023-03-19T05:28:50.843Z,1.23
2023-03-19T05:31:17.595Z,1.67
2023-03-19T05:33:44.403Z,1.48
2023-03-19T05:36:11.109Z,1.92
2023-03-19T05:38:37.817Z,1.10
2023-03-19T05:41:05.651Z,1.30
2023-03-19T05:43:32.705Z,1.02
2023-03-19T05:45:59.485Z,1.30
2023-03-19T05:48:26.535Z,0.60
2023-03-19T05:50:53.356Z,1.10
2023-03-19T05:53:20.382Z,0.98
2023-03-19T05:55:47.301Z,2.25
2023-03-19T05:58:14.019Z,0.80
2023-03-19T06:00:41.585Z,1.73
2023-03-19T06:03:08.327Z,1.13
2023-03-19T06:05:35.409Z,1.25
2023-03-19T06:08:02.202Z,1.55
2023-03-19T06:10:28.892Z,2.33
2023-03-19T06:12:55.975Z,1.35
2023-03-19T06:15:22.696Z,0.95
2023-03-19T06:17:49.399Z,0.95
2023-03-19T06:20:16.316Z,1.05
2023-03-19T06:22:43.720Z,0.98
2023-03-19T06:25:11.170Z,0.90
2023-03-19T06:27:37.915Z,1.38
2023-03-19T06:30:05.206Z,1.25
2023-03-19T06:32:32.621Z,1.58
2023-03-19T06:34:59.405Z,1.20
2023-03-19T06:37:26.920Z,1.58
2023-03-19T06:39:54.788Z,1.00
2023-03-19T06:42:22.217Z,1.77
2023-03-19T06:44:51.156Z,1.13
2023-03-19T06:47:19.519Z,0.63
2023-03-19T06:49:46.434Z,0.95
2023-03-19T06:52:13.142Z,1.23
2023-03-19T06:54:39.818Z,1.10
2023-03-19T06:57:06.681Z,1.05
2023-03-19T06:59:33.447Z,1.60
2023-03-19T07:02:00.144Z,0.80
2023-03-19T07:04:26.905Z,1.77
2023-03-19T07:06:53.662Z,0.98
2023-03-19T07:09:20.565Z,0.90
2023-03-19T07:11:47.244Z,1.17
2023-03-19T07:14:14.050Z,1.15
2023-03-19T07:16:40.874Z,2.35
2023-03-19T07:19:07.681Z,1.70
2023-03-19T07:21:34.428Z,1.13
2023-03-19T07:24:01.262Z,1.33
2023-03-19T07:26:27.982Z,1.48
2023-03-19T07:28:54.754Z,1.00
2023-03-19T07:31:21.509Z,0.90
2023-03-19T07:33:48.240Z,1.02
2023-03-19T07:36:14.960Z,0.70
2023-03-19T07:38:41.716Z,1.02
2023-03-19T07:41:08.574Z,1.95
2023-03-19T07:43:35.316Z,0.82
2023-03-19T07:46:02.123Z,1.10
2023-03-19T07:48:28.884Z,1.55
2023-03-19T07:50:55.625Z,1.27
2023-03-19T07:53:22.349Z,1.20
2023-03-19T07:55:49.203Z,1.83
2023-03-19T07:58:16.795Z,1.35
2023-03-19T08:00:44.908Z,1.55
2023-03-19T08:03:11.685Z,1.95
2023-03-19T08:05:38.577Z,1.10
2023-03-19T08:08:05.690Z,1.30
2023-03-19T08:10:34.970Z,0.88
2023-03-19T08:13:05.049Z,1.40
2023-03-19T08:15:32.106Z,1.65
2023-03-19T08:18:04.937Z,1.60
2023-03-19T08:20:32.539Z,2.03
2023-03-19T08:22:59.408Z,1.85
2023-03-19T08:25:27.161Z,1.52
2023-03-19T08:27:54.315Z,1.25
2023-03-19T08:30:21.197Z,1.10
2023-03-19T08:32:49.266Z,1.60
2023-03-19T08:35:16.899Z,1.20
2023-03-19T08:37:43.669Z,2.55
2023-03-19T08:40:11.375Z,1.33
2023-03-19T08:42:44.451Z,2.08
2023-03-19T08:45:13.621Z,1.25
2023-03-19T08:47:40.809Z,1.67
2023-03-19T08:50:08.683Z,1.00
2023-03-19T08:52:35.660Z,1.50
2023-03-19T08:55:02.327Z,1.45
2023-03-19T08:57:31.137Z,0.60
2023-03-19T08:59:58.253Z,1.83
2023-03-19T09:02:25.124Z,1.95
2023-03-19T09:04:52.025Z,2.55
2023-03-19T09:07:18.751Z,2.47
2023-03-19T09:09:45.758Z,0.80
2023-03-19T09:12:15.371Z,2.72
2023-03-19T09:14:42.513Z,1.67
2023-03-19T09:17:10.261Z,1.58
2023-03-19T09:19:37.347Z,1.08
2023-03-19T09:22:04.871Z,1.63
2023-03-19T09:24:31.811Z,1.02
2023-03-19T09:26:58.546Z,1.13
2023-03-19T09:29:25.282Z,1.23
2023-03-19T09:31:52.050Z,1.48
2023-03-19T09:34:18.746Z,1.35
2023-03-19T09:36:45.766Z,1.10
2023-03-19T09:39:12.598Z,1.85
2023-03-19T09:41:48.420Z,1.70
2023-03-19T09:44:36.120Z,1.00
2023-03-19T09:47:27.087Z,1.58
2023-03-19T09:49:58.238Z,1.13
2023-03-19T09:52:41.280Z,0.93
2023-03-19T09:55:45.589Z,1.58
2023-03-19T09:58:28.066Z,1.80
2023-03-19T10:00:56.423Z,0.70
2023-03-19T10:03:47.882Z,0.90
2023-03-19T10:06:41.006Z,0.88
2023-03-19T10:09:36.492Z,1.30
2023-03-19T10:12:29.496Z,0.82
2023-03-19T10:15:02.214Z,1.58
2023-03-19T10:17:40.556Z,1.35
2023-03-19T10:20:29.579Z,0.90
2023-03-19T10:23:34.987Z,1.35
2023-03-19T10:26:04.650Z,1.27
2023-03-19T10:28:31.897Z,1.40
2023-03-19T10:31:25.884Z,1.33
2023-03-19T10:34:10.841Z,1.40
2023-03-19T10:36:38.629Z,1.02
2023-03-19T10:39:07.801Z,1.40
2023-03-19T10:42:05.299Z,0.98
2023-03-19T10:44:36.950Z,1.08
2023-03-19T10:47:12.467Z,1.67
2023-03-19T10:49:39.477Z,0.93
2023-03-19T10:52:17.079Z,1.08
2023-03-19T10:54:45.520Z,0.88
2023-03-19T10:57:27.685Z,1.02
2023-03-19T10:59:54.564Z,0.68
2023-03-19T11:02:27.258Z,0.60
2023-03-19T11:05:18.406Z,0.82
2023-03-19T11:08:09.454Z,0.50
2023-03-19T11:10:36.527Z,0.35
2023-03-19T11:13:07.441Z,1.30
2023-03-19T11:15:37.507Z,0.70
2023-03-19T11:18:24.094Z,0.65
2023-03-19T11:21:06.505Z,0.40
2023-03-19T11:23:40.255Z,0.55
2023-03-19T11:26:07.493Z,1.13
2023-03-19T11:28:37.749Z,0.68
2023-03-19T11:31:39.294Z,0.90
2023-03-19T11:35:04.426Z,0.63
2023-03-19T11:37:53.101Z,0.40
2023-03-19T11:40:31.470Z,1.25
2023-03-19T11:43:04.454Z,0.98
2023-03-19T11:45:47.928Z,0.50
2023-03-19T11:48:42.753Z,0.50
2023-03-19T11:51:37.988Z,0.60
2023-03-19T11:54:45.367Z,0.65
2023-03-19T11:57:43.661Z,0.40
2023-03-19T12:00:51.446Z,0.68
2023-03-19T12:03:22.143Z,0.70
2023-03-19T12:06:07.420Z,0.70
2023-03-19T12:08:45.452Z,0.60
2023-03-19T12:11:18.353Z,0.65
2023-03-19T12:13:45.601Z,1.27
2023-03-19T12:16:32.667Z,0.70
2023-03-19T12:18:59.861Z,0.32
2023-03-19T12:21:57.425Z,0.70
2023-03-19T12:24:39.862Z,0.70
2023-03-19T12:27:28.465Z,1.73
2023-03-19T12:30:13.423Z,1.02
2023-03-19T12:32:58.132Z,0.65
2023-03-19T12:35:34.375Z,0.52
2023-03-19T12:38:19.058Z,2.05
2023-03-19T12:40:57.625Z,0.50
2023-03-19T12:43:43.156Z,0.60
2023-03-19T12:46:14.964Z,0.60
2023-03-19T12:49:00.975Z,0.93
2023-03-19T12:51:34.550Z,1.27
2023-03-19T12:54:04.649Z,1.02
2023-03-19T12:56:40.402Z,1.02
2023-03-19T12:59:37.904Z,0.75
2023-03-19T13:02:19.790Z,1.02
2023-03-19T13:05:34.419Z,1.15
2023-03-19T13:08:12.011Z,0.80
2023-03-19T13:10:38.824Z,1.20
2023-03-19T13:13:27.293Z,0.63
2023-03-19T13:16:20.808Z,1.33
2023-03-19T13:18:58.994Z,0.80
2023-03-19T13:21:31.098Z,0.90
2023-03-19T13:24:07.535Z,1.40
2023-03-19T13:26:34.814Z,2.00
2023-03-19T13:29:25.793Z,1.63
2023-03-19T13:31:59.235Z,0.88
2023-03-19T13:34:28.349Z,1.52
2023-03-19T13:37:14.953Z,1.38
2023-03-19T13:39:43.613Z,0.63
2023-03-19T13:42:10.586Z,1.05
2023-03-19T13:44:57.272Z,0.50
2023-03-19T13:47:26.943Z,0.80
2023-03-19T13:50:25.796Z,0.80
2023-03-19T13:53:31.203Z,0.52
2023-03-19T13:56:05.705Z,2.85
2023-03-19T13:58:52.865Z,1.65
2023-03-19T14:01:25.788Z,1.05
2023-03-19T14:04:02.851Z,1.45
2023-03-19T14:06:46.082Z,0.70
2023-03-19T14:10:00.286Z,0.88
2023-03-19T14:12:37.232Z,1.20
2023-03-19T14:15:07.255Z,1.58
2023-03-19T14:17:42.099Z,1.63
2023-03-19T14:20:17.214Z,1.58
2023-03-19T14:23:12.027Z,1.23
2023-03-19T14:26:19.688Z,0.88
2023-03-19T14:28:50.136Z,0.57
2023-03-19T14:31:33.787Z,1.30
2023-03-19T14:34:00.682Z,1.23
2023-03-19T14:36:28.317Z,1.30
2023-03-19T14:39:18.436Z,0.60
2023-03-19T14:41:49.154Z,0.85
2023-03-19T14:44:48.184Z,0.55
2023-03-19T14:47:24.253Z,1.63
2023-03-19T14:50:15.672Z,0.70
2023-03-19T14:53:15.436Z,1.35
2023-03-19T14:55:42.614Z,1.30
2023-03-19T14:58:12.958Z,0.52
2023-03-19T15:00:53.629Z,0.93
2023-03-19T15:03:31.923Z,0.52
2023-03-19T15:06:04.557Z,0.50
2023-03-19T15:08:33.616Z,1.13
2023-03-19T15:11:29.707Z,1.10
2023-03-19T15:14:08.564Z,0.65
2023-03-19T15:17:04.797Z,0.98
2023-03-19T15:19:32.704Z,1.10
2023-03-19T15:22:32.898Z,0.57
2023-03-19T15:25:14.558Z,1.25
2023-03-19T15:27:42.798Z,1.08
2023-03-19T15:30:28.479Z,0.93
2023-03-19T15:33:10.558Z,1.63
2023-03-19T15:35:41.571Z,0.77
2023-03-19T15:38:12.359Z,1.27
2023-03-19T15:40:41.373Z,0.77
2023-03-19T15:43:11.455Z,1.27
2023-03-19T15:45:41.331Z,0.80
2023-03-19T15:48:21.839Z,1.17
2023-03-19T15:50:52.011Z,2.03
2023-03-19T15:53:22.996Z,1.40
2023-03-19T15:55:51.585Z,0.98
2023-03-19T15:58:24.869Z,0.73
2023-03-19T16:00:56.470Z,0.68
2023-03-19T16:03:28.918Z,0.40
2023-03-19T16:08:28.934Z,0.95
2023-03-19T16:10:56.131Z,0.80
2023-03-19T16:13:25.816Z,0.98
2023-03-19T16:16:00.851Z,0.50
2023-03-19T16:18:30.758Z,2.40
2023-03-19T16:21:15.923Z,0.60
2023-03-19T16:24:04.896Z,0.82
2023-03-19T16:26:41.408Z,0.70
2023-03-19T16:29:27.607Z,0.88
2023-03-19T16:32:15.838Z,0.70
2023-03-19T16:34:49.172Z,1.00
2023-03-19T16:37:28.171Z,0.82
2023-03-19T16:40:21.813Z,0.90
2023-03-19T16:42:50.942Z,0.60
2023-03-19T16:45:19.486Z,0.68
2023-03-19T16:47:50.829Z,0.77
2023-03-19T16:50:20.537Z,0.45
2023-03-19T16:52:48.918Z,0.50
2023-03-19T16:55:46.566Z,0.70
2023-03-19T16:58:18.917Z,0.75
2023-03-19T17:00:46.204Z,0.52
2023-03-19T17:03:15.929Z,0.70
2023-03-19T17:05:43.631Z,0.88
2023-03-19T17:08:11.664Z,0.90
2023-03-19T17:10:44.817Z,0.70
2023-03-19T17:13:28.254Z,0.50
2023-03-19T17:15:57.747Z,0.32
2023-03-19T17:18:31.962Z,0.95
2023-03-19T17:21:31.711Z,1.90
2023-03-19T17:24:11.097Z,1.45
2023-03-19T17:26:37.978Z,1.50
2023-03-19T17:29:04.736Z,1.33
2023-03-19T17:31:33.316Z,1.00
2023-03-19T17:34:16.496Z,0.70
2023-03-19T17:36:48.284Z,0.70
2023-03-19T17:39:15.156Z,1.10
2023-03-19T17:41:41.936Z,1.10
2023-03-19T17:44:08.928Z,1.00
2023-03-19T17:46:40.581Z,1.17
2023-03-19T17:49:21.270Z,1.57
2023-03-19T17:51:48.114Z,1.30
2023-03-19T17:54:16.543Z,1.55
2023-03-19T17:56:43.752Z,1.33
2023-03-19T17:59:11.150Z,2.10
2023-03-19T18:01:39.485Z,2.28
2023-03-19T18:04:07.167Z,1.85
2023-03-19T18:06:36.534Z,2.63
2023-03-19T18:09:03.749Z,1.65
2023-03-19T18:11:30.559Z,2.33
2023-03-19T18:13:57.274Z,1.92
2023-03-19T18:16:23.948Z,2.22
2023-03-19T18:18:52.504Z,2.67
2023-03-19T18:21:19.268Z,2.40
2023-03-19T18:23:46.587Z,1.77
2023-03-19T18:26:13.967Z,1.55
2023-03-19T18:28:41.869Z,2.10
2023-03-19T18:31:29.053Z,2.00
2023-03-19T18:33:59.385Z,2.75
2023-03-19T18:36:29.083Z,2.42
2023-03-19T18:39:01.326Z,2.47
2023-03-19T18:41:31.563Z,1.40
2023-03-19T18:43:58.338Z,1.52
2023-03-19T18:46:30.566Z,1.27
2023-03-19T18:49:23.198Z,1.50
2023-03-19T18:52:02.054Z,1.73
2023-03-19T18:54:30.822Z,1.42
2023-03-19T18:56:58.478Z,1.48
2023-03-19T18:59:27.746Z,2.92
2023-03-19T19:02:19.082Z,1.92
2023-03-19T19:04:46.069Z,3.03
2023-03-19T19:07:17.374Z,1.80
2023-03-19T19:09:47.194Z,2.33
2023-03-19T19:12:18.368Z,2.28
2023-03-19T19:14:46.270Z,1.73
2023-03-19T19:17:33.112Z,1.83
2023-03-19T19:20:00.094Z,1.42
2023-03-19T19:22:27.942Z,2.55
2023-03-19T19:24:54.811Z,3.03
2023-03-19T19:27:25.970Z,2.40
2023-03-19T19:29:53.226Z,1.60
2023-03-19T19:32:26.674Z,2.45
2023-03-19T19:34:56.406Z,3.75
2023-03-19T19:37:29.419Z,4.03
2023-03-19T19:39:56.520Z,4.68
2023-03-19T19:42:23.919Z,4.32
2023-03-19T19:44:56.315Z,2.85
2023-03-19T19:47:23.264Z,3.67
2023-03-19T19:49:50.479Z,3.22
2023-03-19T19:52:19.192Z,3.63
2023-03-19T19:54:46.692Z,3.13
2023-03-19T19:57:19.164Z,2.28
2023-03-19T19:59:46.292Z,3.20
2023-03-19T20:02:28.712Z,2.50
2023-03-19T20:04:56.430Z,2.42
2023-03-19T20:07:23.750Z,2.63
2023-03-19T20:09:52.012Z,1.90
2023-03-19T20:12:23.011Z,2.00
2023-03-19T20:14:51.117Z,2.17
2023-03-19T20:17:19.130Z,3.00
2023-03-19T20:19:46.656Z,2.10
2023-03-19T20:22:13.458Z,1.67
2023-03-19T20:24:40.629Z,2.08
2023-03-19T20:27:18.986Z,2.45
2023-03-19T20:29:53.821Z,1.90
2023-03-19T20:32:41.134Z,2.20
2023-03-19T20:35:17.590Z,1.77
2023-03-19T20:37:44.485Z,1.60
2023-03-19T20:40:12.980Z,1.80
2023-03-19T20:42:41.331Z,2.40
2023-03-19T20:45:16.223Z,2.60
2023-03-19T20:47:43.261Z,3.60
2023-03-19T20:50:19.602Z,2.45
2023-03-19T20:52:46.838Z,2.70
2023-03-19T20:55:17.596Z,2.58
2023-03-19T20:57:46.418Z,2.05
2023-03-19T21:00:21.419Z,2.00
2023-03-19T21:02:50.118Z,2.03
2023-03-19T21:05:17.966Z,2.05
2023-03-19T21:07:47.877Z,1.42
2023-03-19T21:10:31.581Z,2.88
2023-03-19T21:12:59.802Z,1.80
2023-03-19T21:15:27.389Z,1.60
2023-03-19T21:17:54.658Z,2.38
2023-03-19T21:20:26.644Z,2.22
2023-03-19T21:22:58.898Z,2.05
2023-03-19T21:25:29.839Z,1.85
2023-03-19T21:28:02.329Z,2.03
2023-03-19T21:32:57.119Z,2.83
2023-03-19T21:35:25.963Z,2.92
2023-03-19T21:37:53.628Z,1.70
2023-03-19T21:40:25.647Z,1.75
2023-03-19T21:42:56.053Z,2.13
2023-03-19T21:45:35.454Z,2.42
2023-03-19T21:48:23.528Z,1.48
2023-03-19T21:50:50.663Z,1.77
2023-03-19T21:53:18.248Z,2.20
2023-03-19T21:55:46.143Z,1.88
2023-03-19T21:58:18.717Z,2.35
2023-03-19T22:03:21.643Z,2.17
2023-03-19T22:05:49.938Z,1.70
2023-03-19T22:08:18.169Z,2.60
2023-03-19T22:10:45.230Z,2.15
2023-03-19T22:13:19.613Z,1.80
2023-03-19T22:15:46.565Z,2.53
2023-03-19T22:18:15.805Z,1.98
2023-03-19T22:20:44.302Z,1.70
2023-03-19T22:23:12.238Z,2.55
2023-03-19T22:25:42.503Z,2.05
2023-03-19T22:28:29.743Z,2.83
2023-03-19T22:30:56.875Z,2.05
2023-03-19T22:33:26.555Z,2.45
2023-03-19T22:35:58.512Z,2.20
2023-03-19T22:38:25.613Z,1.77
2023-03-19T22:40:55.680Z,2.13
2023-03-19T22:43:30.317Z,2.00
2023-03-19T22:46:02.330Z,2.17
2023-03-19T22:48:29.317Z,1.80
2023-03-19T22:50:57.238Z,2.13
2023-03-19T22:53:29.964Z,1.80
2023-03-19T22:55:58.214Z,2.58
2023-03-19T22:58:25.817Z,1.55
2023-03-19T23:00:53.187Z,2.80
2023-03-19T23:03:24.647Z,2.70
2023-03-19T23:05:54.940Z,1.65
2023-03-19T23:08:22.823Z,1.67
2023-03-19T23:10:51.454Z,1.35
2023-03-19T23:13:18.442Z,1.63
2023-03-19T23:15:45.831Z,2.38
2023-03-19T23:18:17.881Z,2.15
2023-03-19T23:20:46.490Z,1.40
2023-03-19T23:23:15.272Z,1.75
2023-03-19T23:25:43.565Z,1.58
2023-03-19T23:28:28.536Z,1.73
2023-03-19T23:30:55.363Z,1.77
2023-03-19T23:33:22.267Z,2.45
2023-03-19T23:35:49.156Z,2.05
2023-03-19T23:38:17.371Z,2.00
2023-03-19T23:40:44.244Z,2.00
2023-03-19T23:43:24.588Z,2.03
2023-03-19T23:45:52.996Z,2.50
2023-03-19T23:48:33.578Z,2.22
2023-03-19T23:51:00.536Z,1.63
2023-03-19T23:53:29.288Z,2.03
2023-03-19T23:55:59.930Z,3.00
2023-03-19T23:58:43.032Z,1.45
